Time;durP1;ratioP1;P1;durP2;ratioP2;P2;SDS_P1;SDS_P2;PMS_P1;PMS_P2;Temp;Humidity;BMP_temperature;BMP_pressure;BME280_temperature;BME280_humidity;BME280_pressure;Samples;Min_cycle;Max_cycle;Signal;HPM_P1;HPM_P2
2024/04/05 00:00:17;;;;;;;1.50;0.50;;;13.20;99.90;;;;;;15304928;19;20482;-80
2024/04/05 00:05:17;;;;;;;1.73;0.40;;;13.30;99.90;;;;;;15308087;19;20150;-80
2024/04/05 00:10:18;;;;;;;1.05;0.60;;;13.50;99.90;;;;;;15360825;19;20130;-83
2024/04/05 00:15:19;;;;;;;0.95;0.70;;;13.60;99.90;;;;;;15316743;19;20210;-80
2024/04/05 00:20:20;;;;;;;2.03;0.50;;;13.70;99.90;;;;;;15310184;19;20138;-81
2024/04/05 00:25:20;;;;;;;2.40;0.60;;;13.70;99.90;;;;;;15306060;19;20656;-80
2024/04/05 00:30:21;;;;;;;1.60;0.50;;;13.60;99.90;;;;;;15307891;19;20132;-80
2024/04/05 00:35:21;;;;;;;0.95;0.70;;;13.60;99.90;;;;;;15302536;19;20210;-80
2024/04/05 00:40:26;;;;;;;3.13;0.82;;;13.40;99.90;;;;;;15301601;19;20134;-76
2024/04/05 00:45:26;;;;;;;0.80;0.40;;;13.40;99.90;;;;;;15298907;19;20597;-79
2024/04/05 00:50:30;;;;;;;1.92;0.70;;;13.30;99.90;;;;;;15300859;19;20218;-80
2024/04/05 00:55:31;;;;;;;0.95;0.50;;;13.30;99.90;;;;;;15299923;19;20196;-80
2024/04/05 01:00:32;;;;;;;1.30;0.75;;;13.30;99.90;;;;;;15302205;19;20122;-80
2024/04/05 01:05:34;;;;;;;0.60;0.43;;;13.30;99.90;;;;;;15301356;19;20168;-80
2024/04/05 01:10:37;;;;;;;2.38;0.40;;;13.40;99.90;;;;;;15300837;19;20206;-80
2024/04/05 01:15:39;;;;;;;1.67;0.70;;;13.40;99.90;;;;;;15298884;19;20161;-80
2024/04/05 01:20:43;;;;;;;4.22;0.70;;;13.40;99.90;;;;;;15297737;19;20142;-80
2024/04/05 01:25:43;;;;;;;0.93;0.73;;;13.30;99.90;;;;;;15300634;19;20290;-81
2024/04/05 01:30:44;;;;;;;1.25;0.63;;;13.30;99.90;;;;;;15307213;19;20251;-80
2024/04/05 01:35:44;;;;;;;1.15;0.47;;;13.20;99.90;;;;;;15326788;19;20141;-77
2024/04/05 01:40:45;;;;;;;2.55;0.55;;;13.20;99.90;;;;;;15301818;19;20145;-77
2024/04/05 01:45:46;;;;;;;0.70;0.40;;;13.10;99.90;;;;;;15294139;19;20157;-77
2024/04/05 01:50:46;;;;;;;2.03;0.82;;;13.20;99.90;;;;;;15292890;19;20148;-79
2024/04/05 01:55:47;;;;;;;1.13;0.60;;;13.20;99.90;;;;;;15293690;19;20142;-78
2024/04/05 02:00:47;;;;;;;2.75;0.80;;;13.10;99.90;;;;;;15293051;19;20126;-77
2024/04/05 02:05:48;;;;;;;1.38;0.70;;;13.20;99.90;;;;;;15291505;19;20197;-76
2024/04/05 02:10:48;;;;;;;3.85;0.68;;;13.20;99.90;;;;;;15291620;19;20613;-75
2024/04/05 02:15:49;;;;;;;2.83;0.93;;;13.20;99.90;;;;;;15310487;19;20150;-78
2024/04/05 02:20:57;;;;;;;1.67;0.50;;;13.20;99.90;;;;;;15314272;19;20147;-79
2024/04/05 02:25:57;;;;;;;1.77;1.05;;;13.10;99.90;;;;;;15301794;19;20142;-78
2024/04/05 02:30:58;;;;;;;2.90;0.50;;;13.20;99.90;;;;;;15290887;19;20134;-79
2024/04/05 02:35:59;;;;;;;2.22;0.50;;;13.30;99.90;;;;;;15289230;19;20522;-79
2024/04/05 02:41:04;;;;;;;1.73;0.60;;;13.40;99.90;;;;;;15282864;19;20151;-79
2024/04/05 02:46:04;;;;;;;1.92;0.88;;;13.40;99.90;;;;;;15283947;19;20196;-78
2024/04/05 02:51:05;;;;;;;2.20;0.80;;;13.40;99.90;;;;;;15287796;19;20201;-78
2024/04/05 02:56:06;;;;;;;2.03;0.50;;;13.30;99.90;;;;;;15285310;19;20233;-80
2024/04/05 03:01:06;;;;;;;2.35;0.60;;;13.30;99.90;;;;;;15285175;19;20157;-79
2024/04/05 03:06:07;;;;;;;1.33;0.68;;;13.20;99.90;;;;;;15292169;19;20194;-81
2024/04/05 03:11:08;;;;;;;1.52;0.60;;;13.20;99.90;;;;;;15318187;19;20126;-80
2024/04/05 03:16:08;;;;;;;1.38;0.50;;;13.10;99.90;;;;;;15302325;19;20130;-80
2024/04/05 03:21:09;;;;;;;3.30;0.60;;;13.10;99.90;;;;;;15307844;19;20123;-79
2024/04/05 03:26:09;;;;;;;1.65;0.43;;;13.20;99.90;;;;;;15305278;19;20213;-82
2024/04/05 03:31:10;;;;;;;0.93;0.60;;;13.20;99.90;;;;;;15303208;19;20131;-79
2024/04/05 03:36:10;;;;;;;2.05;0.60;;;13.20;99.90;;;;;;15306377;19;20153;-80
2024/04/05 03:41:11;;;;;;;1.38;0.50;;;13.20;99.90;;;;;;15302435;19;20139;-80
2024/04/05 03:46:11;;;;;;;2.50;0.60;;;13.20;99.90;;;;;;15305030;19;20138;-80
2024/04/05 03:51:12;;;;;;;1.70;0.60;;;13.10;99.90;;;;;;15299631;19;20139;-79
2024/04/05 03:56:12;;;;;;;0.80;0.50;;;13.00;99.90;;;;;;15299856;19;20142;-79
2024/04/05 04:01:13;;;;;;;1.65;0.65;;;12.80;99.90;;;;;;15293126;19;20114;-79
2024/04/05 04:06:14;;;;;;;1.83;0.75;;;12.80;99.90;;;;;;15298772;19;20158;-79
2024/04/05 04:11:14;;;;;;;2.10;0.60;;;12.70;99.90;;;;;;15296378;19;20140;-80
2024/04/05 04:16:16;;;;;;;0.82;0.50;;;12.50;99.90;;;;;;15301370;19;20182;-79
2024/04/05 04:21:16;;;;;;;1.08;0.57;;;12.50;99.90;;;;;;15292182;19;20251;-79
2024/04/05 04:26:17;;;;;;;0.65;0.50;;;12.60;99.90;;;;;;15302466;19;20146;-79
2024/04/05 04:31:22;;;;;;;0.95;0.60;;;12.60;99.90;;;;;;15303766;19;20131;-80
2024/04/05 04:36:23;;;;;;;1.10;0.63;;;12.60;99.90;;;;;;15303376;19;20154;-77
2024/04/05 04:41:24;;;;;;;1.15;0.75;;;12.60;99.90;;;;;;15296867;19;20134;-79
2024/04/05 04:46:24;;;;;;;1.42;0.68;;;12.50;99.90;;;;;;15299635;19;20142;-79
2024/04/05 04:51:26;;;;;;;1.90;0.80;;;12.50;99.90;;;;;;15293801;19;20140;-78
2024/04/05 04:56:30;;;;;;;1.05;0.43;;;12.40;99.90;;;;;;15296298;19;20159;-79
2024/04/05 05:01:31;;;;;;;1.13;0.68;;;12.30;99.90;;;;;;15289190;19;20111;-78
2024/04/05 05:06:32;;;;;;;1.58;0.55;;;12.30;99.90;;;;;;15297155;19;20150;-79
2024/04/05 05:11:33;;;;;;;1.17;0.50;;;12.30;99.90;;;;;;15293088;19;20114;-80
2024/04/05 05:16:34;;;;;;;0.77;0.40;;;12.30;99.90;;;;;;15299714;19;20177;-81
2024/04/05 05:21:35;;;;;;;1.40;0.77;;;12.40;99.90;;;;;;15292133;19;20131;-80
2024/04/05 05:26:35;;;;;;;3.90;0.70;;;12.30;99.90;;;;;;15298761;19;20153;-79
2024/04/05 05:31:36;;;;;;;2.13;1.00;;;12.40;99.90;;;;;;15293046;19;20123;-79
2024/04/05 05:36:36;;;;;;;1.00;0.73;;;12.40;99.90;;;;;;15299564;19;20146;-79
2024/04/05 05:41:37;;;;;;;2.13;0.70;;;12.50;99.90;;;;;;15290607;19;20107;-79
2024/04/05 05:46:38;;;;;;;1.30;0.50;;;12.60;99.90;;;;;;15295475;19;20525;-79
2024/04/05 05:51:38;;;;;;;2.03;0.73;;;12.80;99.90;;;;;;15292291;19;20122;-80
2024/04/05 05:56:39;;;;;;;4.57;0.77;;;13.00;99.90;;;;;;15297666;19;20551;-80
2024/04/05 06:01:39;;;;;;;2.22;0.57;;;13.10;99.90;;;;;;15290486;19;20139;-78
2024/04/05 06:06:40;;;;;;;0.82;0.55;;;13.20;99.90;;;;;;15300163;19;20154;-79
2024/04/05 06:11:41;;;;;;;1.10;0.45;;;13.40;99.90;;;;;;15297490;19;20122;-78
2024/04/05 06:16:41;;;;;;;1.02;0.60;;;13.70;99.90;;;;;;15293750;19;20551;-79
2024/04/05 06:21:42;;;;;;;3.75;0.75;;;13.90;99.90;;;;;;15290992;19;20117;-78
2024/04/05 06:26:42;;;;;;;2.33;1.05;;;14.00;99.90;;;;;;15299112;19;20147;-79
2024/04/05 06:31:43;;;;;;;0.68;0.43;;;14.00;99.90;;;;;;15300180;19;20134;-79
2024/04/05 06:36:45;;;;;;;1.20;0.60;;;14.00;99.90;;;;;;15304224;19;20248;-79
2024/04/05 06:41:45;;;;;;;3.45;1.15;;;14.00;99.90;;;;;;15300840;19;20621;-81
2024/04/05 06:46:46;;;;;;;1.88;0.55;;;14.30;99.90;;;;;;15312836;19;20206;-81
2024/04/05 06:51:47;;;;;;;1.58;0.75;;;14.60;99.90;;;;;;15329720;19;20122;-79
2024/04/05 06:56:47;;;;;;;1.60;0.90;;;15.00;99.90;;;;;;15348569;19;20879;-81
2024/04/05 07:01:53;;;;;;;1.08;0.50;;;15.40;99.90;;;;;;15347334;19;20122;-83
2024/04/05 07:06:54;;;;;;;0.98;0.60;;;15.60;99.90;;;;;;15346873;19;20158;-80
2024/04/05 07:11:55;;;;;;;2.35;0.63;;;15.90;99.90;;;;;;15309216;19;20493;-80
2024/04/05 07:16:56;;;;;;;1.58;0.50;;;16.20;99.90;;;;;;15302915;19;20154;-79
2024/04/05 07:21:57;;;;;;;0.73;0.50;;;16.40;99.90;;;;;;15303666;19;20602;-80
2024/04/05 07:27:42;;;;;;;1.00;0.57;;;16.60;99.90;;;;;;15307199;19;20185;-83
2024/04/05 07:32:43;;;;;;;2.13;0.80;;;16.80;99.90;;;;;;15311034;19;20150;-82
2024/04/05 07:37:48;;;;;;;1.70;0.73;;;17.10;99.90;;;;;;15305176;19;20606;-81
2024/04/05 07:42:54;;;;;;;1.60;0.70;;;17.30;99.90;;;;;;15309151;19;20167;-82
2024/04/05 07:47:55;;;;;;;2.55;0.60;;;17.50;99.90;;;;;;15304108;19;20178;-82
2024/04/05 07:52:55;;;;;;;1.45;0.70;;;17.50;99.90;;;;;;15313577;19;20820;-82
2024/04/05 07:57:56;;;;;;;2.55;0.70;;;17.60;99.90;;;;;;15308090;19;20163;-84
2024/04/05 08:02:57;;;;;;;1.33;0.55;;;17.80;99.90;;;;;;15317314;19;20462;-82
2024/04/05 08:07:57;;;;;;;2.00;0.70;;;17.80;99.90;;;;;;15300541;19;20161;-80
2024/04/05 08:12:58;;;;;;;1.30;0.75;;;17.60;99.90;;;;;;15311955;19;20155;-81
2024/04/05 08:17:59;;;;;;;0.63;0.40;;;17.50;99.90;;;;;;15301668;19;20181;-81
2024/04/05 08:22:59;;;;;;;3.97;0.68;;;17.40;99.90;;;;;;15308234;19;20142;-81
2024/04/05 08:28:00;;;;;;;1.48;0.70;;;17.40;99.90;;;;;;15309954;19;20134;-81
2024/04/05 08:33:03;;;;;;;1.08;0.52;;;17.40;99.90;;;;;;15312179;19;20205;-81
2024/04/05 08:38:06;;;;;;;1.00;0.40;;;17.40;99.90;;;;;;15306830;19;20178;-82
2024/04/05 08:43:09;;;;;;;1.17;0.60;;;17.50;99.90;;;;;;15307783;19;20142;-84
2024/04/05 08:48:10;;;;;;;1.67;0.70;;;17.80;99.90;;;;;;15334309;19;20195;-82
2024/04/05 08:53:14;;;;;;;1.55;0.70;;;18.00;99.90;;;;;;15331212;19;20115;-83
2024/04/05 08:58:15;;;;;;;1.38;0.60;;;18.10;99.90;;;;;;15329328;19;20159;-83
2024/04/05 09:03:16;;;;;;;3.25;0.77;;;18.00;99.90;;;;;;15316332;19;20772;-83
2024/04/05 09:08:17;;;;;;;1.50;0.60;;;18.10;99.90;;;;;;15369783;19;20114;-86
2024/04/05 09:13:17;;;;;;;1.73;0.68;;;18.20;99.90;;;;;;15335766;19;20177;-82
2024/04/05 09:18:27;;;;;;;1.08;0.43;;;18.30;99.90;;;;;;15313837;19;20138;-83
2024/04/05 09:23:28;;;;;;;1.08;0.52;;;18.40;99.90;;;;;;15308171;19;20123;-85
2024/04/05 09:28:31;;;;;;;1.52;0.57;;;18.60;99.90;;;;;;15316443;19;20130;-81
2024/04/05 09:33:31;;;;;;;1.35;0.60;;;18.70;99.90;;;;;;15303999;19;20139;-82
2024/04/05 09:38:34;;;;;;;0.90;0.57;;;18.90;99.90;;;;;;15321084;19;20149;-81
2024/04/05 09:43:37;;;;;;;1.15;0.60;;;19.10;99.90;;;;;;15315392;19;20210;-85
2024/04/05 09:48:39;;;;;;;0.63;0.35;;;19.50;99.90;;;;;;15328032;19;20134;-85
2024/04/05 09:53:50;;;;;;;2.45;0.60;;;19.70;99.90;;;;;;15317766;19;20210;-85
2024/04/05 09:58:54;;;;;;;2.85;0.75;;;19.90;99.90;;;;;;15321476;19;20143;-84
2024/04/05 10:03:54;;;;;;;0.93;0.50;;;19.90;99.90;;;;;;15316839;19;20186;-84
2024/04/05 10:08:55;;;;;;;0.45;0.35;;;20.10;99.90;;;;;;15316860;19;20111;-83
2024/04/05 10:14:02;;;;;;;0.70;0.50;;;20.10;99.90;;;;;;15319186;19;20149;-84
2024/04/05 10:19:13;;;;;;;1.05;0.50;;;20.30;99.90;;;;;;15325060;19;20667;-84
2024/04/05 10:24:17;;;;;;;0.93;0.77;;;20.50;99.90;;;;;;15335135;19;20175;-83
2024/04/05 10:29:17;;;;;;;0.50;0.40;;;20.70;99.90;;;;;;15334981;19;20145;-83
2024/04/05 10:34:24;;;;;;;2.75;0.40;;;21.10;99.90;;;;;;15332765;19;20174;-84
2024/04/05 10:39:25;;;;;;;2.17;0.30;;;21.40;99.90;;;;;;15332059;19;20138;-85
2024/04/05 10:44:26;;;;;;;0.30;0.30;;;21.80;99.90;;;;;;15334714;19;20146;-84
2024/04/05 10:49:26;;;;;;;0.93;0.38;;;22.10;99.90;;;;;;15331759;19;20573;-82
2024/04/05 10:54:28;;;;;;;3.35;0.40;;;22.10;99.90;;;;;;15328607;19;20150;-83
2024/04/05 10:59:28;;;;;;;0.90;0.40;;;22.00;99.90;;;;;;15330736;19;20551;-84
2024/04/05 11:04:29;;;;;;;1.00;0.40;;;21.80;99.90;;;;;;15319325;19;20187;-83
2024/04/05 11:09:35;;;;;;;0.52;0.40;;;22.10;99.90;;;;;;15320858;19;20125;-85
2024/04/05 11:14:36;;;;;;;1.45;0.45;;;22.50;99.90;;;;;;15313048;19;20782;-80
2024/04/05 11:20:21;;;;;;;1.02;0.30;;;22.60;99.90;;;;;;15307883;19;20118;-82
2024/04/05 11:25:21;;;;;;;4.55;0.68;;;22.70;99.90;;;;;;15310116;19;20228;-79
2024/04/05 11:30:22;;;;;;;1.08;0.47;;;22.50;99.90;;;;;;15308445;19;20522;-80
2024/04/05 11:35:23;;;;;;;0.50;0.30;;;22.40;99.90;;;;;;15309142;19;20176;-81
2024/04/05 11:40:23;;;;;;;0.75;0.40;;;22.50;99.90;;;;;;15301376;19;20217;-81
2024/04/05 11:45:24;;;;;;;0.68;0.38;;;22.50;99.90;;;;;;15305596;19;20182;-81
2024/04/05 11:50:24;;;;;;;0.32;0.32;;;22.40;99.90;;;;;;15303800;19;20186;-78
2024/04/05 11:55:25;;;;;;;1.45;0.80;;;22.30;99.90;;;;;;15305513;19;20174;-80
2024/04/05 12:00:25;;;;;;;1.00;0.47;;;22.40;99.90;;;;;;15301215;19;20566;-81
2024/04/05 12:05:26;;;;;;;0.43;0.32;;;22.10;99.90;;;;;;15343935;19;20142;-85
2024/04/05 12:10:26;;;;;;;1.25;0.40;;;22.00;99.90;;;;;;15330712;19;20526;-83
2024/04/05 12:15:27;;;;;;;0.80;0.40;;;22.40;99.90;;;;;;15317522;19;20159;-84
2024/04/05 12:20:28;;;;;;;0.85;0.50;;;23.30;99.90;;;;;;15317328;19;20603;-81
2024/04/05 12:25:29;;;;;;;1.08;0.43;;;23.90;99.90;;;;;;15328439;19;20170;-85
2024/04/05 12:30:29;;;;;;;0.45;0.30;;;23.90;99.90;;;;;;15339862;19;20163;-86
2024/04/05 12:35:31;;;;;;;0.50;0.35;;;23.90;99.90;;;;;;15357782;19;20142;-84
2024/04/05 12:40:43;;;;;;;0.75;0.43;;;23.40;99.90;;;;;;15336506;19;20146;-84
2024/04/05 12:45:56;;;;;;;1.80;0.35;;;23.40;99.90;;;;;;15323369;19;20167;-84
2024/04/05 12:51:01;;;;;;;2.33;0.70;;;23.10;99.90;;;;;;15319404;19;20150;-82
2024/04/05 12:56:03;;;;;;;0.60;0.40;;;22.70;99.80;;;;;;15323216;19;20169;-82
2024/04/05 13:01:04;;;;;;;0.50;0.30;;;22.90;99.40;;;;;;15313774;19;20151;-82
2024/04/05 13:06:07;;;;;;;0.63;0.40;;;22.60;98.70;;;;;;15323454;19;20173;-83
2024/04/05 13:11:09;;;;;;;0.65;0.30;;;22.30;98.60;;;;;;15323712;19;20150;-81
2024/04/05 13:16:10;;;;;;;0.30;0.30;;;22.00;98.70;;;;;;15306531;19;20186;-80
2024/04/05 13:21:15;;;;;;;2.70;0.52;;;21.90;99.10;;;;;;15298802;19;20164;-81
2024/04/05 13:26:20;;;;;;;0.80;0.50;;;21.80;99.30;;;;;;15301725;19;20209;-81
2024/04/05 13:31:23;;;;;;;0.63;0.35;;;21.70;99.80;;;;;;15299663;19;20130;-80
2024/04/05 13:36:24;;;;;;;1.25;0.40;;;21.80;99.70;;;;;;15303426;19;20146;-82
2024/04/05 13:41:25;;;;;;;1.08;0.50;;;21.50;99.40;;;;;;15293298;19;20138;-79
2024/04/05 13:46:26;;;;;;;1.58;0.70;;;21.50;99.80;;;;;;15300713;19;20145;-80
2024/04/05 13:51:27;;;;;;;1.13;0.65;;;21.40;99.90;;;;;;15292693;19;20142;-79
2024/04/05 13:56:28;;;;;;;3.38;0.85;;;21.60;99.90;;;;;;15300188;19;20150;-82
2024/04/05 14:01:28;;;;;;;0.38;0.28;;;21.80;99.80;;;;;;15305781;19;20122;-83
2024/04/05 14:06:30;;;;;;;1.65;0.40;;;22.10;99.70;;;;;;15312471;19;20142;-81
2024/04/05 14:11:30;;;;;;;1.10;0.50;;;22.40;99.40;;;;;;15307307;19;20174;-81
2024/04/05 14:16:32;;;;;;;1.92;0.70;;;22.60;99.80;;;;;;15308445;19;20146;-83
2024/04/05 14:21:32;;;;;;;0.40;0.30;;;22.60;99.70;;;;;;15293291;19;20122;-80
2024/04/05 14:26:33;;;;;;;1.92;0.70;;;22.50;99.70;;;;;;15294201;19;20168;-81
2024/04/05 14:31:34;;;;;;;3.78;0.60;;;22.30;99.90;;;;;;15300006;19;20181;-81
2024/04/05 14:36:34;;;;;;;1.48;0.55;;;22.20;99.90;;;;;;15297692;19;20169;-82
2024/04/05 14:41:37;;;;;;;5.05;0.60;;;22.20;99.90;;;;;;15299235;19;20663;-81
2024/04/05 14:46:37;;;;;;;1.73;0.55;;;22.20;99.90;;;;;;15299021;19;20578;-81
2024/04/05 14:51:38;;;;;;;0.82;0.50;;;22.20;99.90;;;;;;15301824;19;20142;-83
2024/04/05 14:56:38;;;;;;;1.20;0.52;;;22.10;99.90;;;;;;15298510;19;20177;-82
2024/04/05 15:01:39;;;;;;;1.83;0.75;;;21.90;99.90;;;;;;15294265;19;20150;-81
2024/04/05 15:06:40;;;;;;;0.93;0.50;;;21.90;99.90;;;;;;15324614;19;20166;-84
2024/04/05 15:11:40;;;;;;;0.90;0.50;;;21.70;99.90;;;;;;15363343;19;20135;-80
2024/04/05 15:16:41;;;;;;;1.40;0.60;;;21.70;99.90;;;;;;15327658;19;20247;-81
2024/04/05 15:21:43;;;;;;;1.17;0.70;;;21.50;99.90;;;;;;15310517;19;20142;-81
2024/04/05 15:26:43;;;;;;;1.23;0.70;;;21.50;99.90;;;;;;15309344;19;20184;-80
2024/04/05 15:31:45;;;;;;;1.58;0.93;;;21.50;99.90;;;;;;15313305;19;20518;-81
2024/04/05 15:36:47;;;;;;;2.35;0.57;;;21.30;99.90;;;;;;15320489;19;20175;-81
2024/04/05 15:41:48;;;;;;;1.77;0.60;;;21.20;99.90;;;;;;15323653;19;20134;-82
2024/04/05 15:46:48;;;;;;;1.50;0.68;;;21.10;99.90;;;;;;15314243;19;20161;-81
2024/04/05 15:51:49;;;;;;;1.48;0.98;;;21.00;99.90;;;;;;15315668;19;20170;-82
2024/04/05 15:56:49;;;;;;;1.08;0.57;;;20.90;99.90;;;;;;15311635;19;20150;-81
2024/04/05 16:01:51;;;;;;;1.48;0.60;;;21.00;99.90;;;;;;15309822;19;20122;-81
2024/04/05 16:06:51;;;;;;;2.38;0.60;;;21.50;99.90;;;;;;15311013;19;20626;-82
2024/04/05 16:11:52;;;;;;;1.35;0.70;;;21.80;99.90;;;;;;15311764;19;20151;-81
2024/04/05 16:16:53;;;;;;;2.40;0.70;;;21.80;99.90;;;;;;15308997;19;20178;-81
2024/04/05 16:21:53;;;;;;;1.30;0.52;;;21.30;99.90;;;;;;15309078;19;20126;-82
2024/04/05 16:26:54;;;;;;;2.30;0.75;;;21.00;99.90;;;;;;15315095;19;20153;-81
2024/04/05 16:31:54;;;;;;;1.08;0.50;;;21.00;99.90;;;;;;15327928;19;20653;-80
2024/04/05 16:36:55;;;;;;;2.35;0.43;;;21.10;99.90;;;;;;15323196;19;20184;-82
2024/04/05 16:41:55;;;;;;;1.95;0.60;;;20.80;99.90;;;;;;15309359;19;20143;-82
2024/04/05 16:46:59;;;;;;;1.52;0.57;;;20.80;99.90;;;;;;15320178;19;21043;-82
2024/04/05 16:52:01;;;;;;;2.00;0.57;;;20.70;99.90;;;;;;15321874;19;20129;-82
2024/04/05 16:57:01;;;;;;;2.47;1.00;;;20.90;99.90;;;;;;15326502;19;20155;-83
2024/04/05 17:02:07;;;;;;;1.42;0.47;;;20.90;99.90;;;;;;15304528;19;20123;-82
2024/04/05 17:07:08;;;;;;;0.60;0.43;;;20.60;99.90;;;;;;15304487;19;20150;-80
2024/04/05 17:12:18;;;;;;;2.22;0.60;;;20.60;99.90;;;;;;15304761;19;20123;-79
2024/04/05 17:17:18;;;;;;;2.67;0.98;;;20.60;99.90;;;;;;15315386;19;20641;-82
2024/04/05 17:22:19;;;;;;;1.83;0.52;;;20.50;99.90;;;;;;15313389;19;20133;-81
2024/04/05 17:27:19;;;;;;;1.88;0.55;;;20.40;99.90;;;;;;15329126;19;20681;-82
2024/04/05 17:32:20;;;;;;;1.35;0.60;;;20.20;99.90;;;;;;15305274;19;20161;-82
2024/04/05 17:37:20;;;;;;;4.05;1.15;;;20.10;99.90;;;;;;15305702;19;20142;-81
2024/04/05 17:42:25;;;;;;;1.45;0.73;;;19.90;99.90;;;;;;15301495;19;20134;-82
2024/04/05 17:47:25;;;;;;;3.67;1.52;;;19.60;99.90;;;;;;15315309;19;20190;-81
2024/04/05 17:52:26;;;;;;;2.08;0.93;;;19.70;99.90;;;;;;15312077;19;20126;-82
2024/04/05 17:57:26;;;;;;;2.38;0.80;;;19.70;99.90;;;;;;15321552;19;20239;-81
2024/04/05 18:02:27;;;;;;;1.98;0.77;;;19.20;99.90;;;;;;15344412;19;20134;-81
2024/04/05 18:07:27;;;;;;;1.85;0.85;;;19.20;99.90;;;;;;15357357;19;20173;-81
2024/04/05 18:12:28;;;;;;;1.88;0.75;;;19.10;99.90;;;;;;15329425;19;20134;-84
2024/04/05 18:17:28;;;;;;;1.92;0.80;;;19.20;99.90;;;;;;15301633;19;20168;-82
2024/04/05 18:22:29;;;;;;;2.13;0.70;;;19.20;99.90;;;;;;15296051;19;20145;-82
2024/04/05 18:27:29;;;;;;;1.00;0.60;;;19.10;99.90;;;;;;15291128;19;20672;-84
2024/04/05 18:32:30;;;;;;;1.25;0.60;;;19.10;99.90;;;;;;15298288;19;20133;-83
2024/04/05 18:37:32;;;;;;;1.83;0.90;;;19.10;99.90;;;;;;15296157;19;20510;-79
2024/04/05 18:42:33;;;;;;;1.33;0.70;;;18.90;99.90;;;;;;15303525;19;20138;-80
2024/04/05 18:47:33;;;;;;;2.55;0.68;;;18.50;99.90;;;;;;15308861;19;20552;-79
2024/04/05 18:52:35;;;;;;;0.55;0.43;;;18.30;99.90;;;;;;15307662;19;20161;-81
2024/04/05 18:57:36;;;;;;;0.68;0.40;;;18.30;99.90;;;;;;15305684;19;20142;-81
2024/04/05 19:02:37;;;;;;;1.00;0.50;;;18.30;99.90;;;;;;15299818;19;20123;-82
2024/04/05 19:07:38;;;;;;;1.13;0.45;;;18.50;99.90;;;;;;15303212;19;20176;-81
2024/04/05 19:12:39;;;;;;;1.10;0.50;;;18.70;99.90;;;;;;15312671;19;20127;-81
2024/04/05 19:17:42;;;;;;;2.72;1.08;;;19.00;99.90;;;;;;15303923;19;20257;-82
2024/04/05 19:22:44;;;;;;;0.55;0.43;;;19.20;99.90;;;;;;15306773;19;20146;-82
2024/04/05 19:27:44;;;;;;;0.70;0.45;;;19.30;99.90;;;;;;15301977;19;20172;-81
2024/04/05 19:32:45;;;;;;;0.73;0.40;;;19.30;99.90;;;;;;15308392;19;20130;-82
2024/04/05 19:37:47;;;;;;;0.57;0.40;;;19.40;99.90;;;;;;15286475;19;20154;-82
2024/04/05 19:42:48;;;;;;;0.80;0.40;;;19.50;99.90;;;;;;15277121;19;20536;-82
2024/04/05 19:47:49;;;;;;;1.05;0.47;;;19.50;99.90;;;;;;15297468;19;20184;-84
2024/04/05 19:52:51;;;;;;;1.13;0.75;;;19.40;99.90;;;;;;15301240;19;20161;-83
2024/04/05 19:57:51;;;;;;;1.00;0.50;;;19.40;99.90;;;;;;15302853;19;20533;-83
2024/04/05 20:02:54;;;;;;;1.70;0.63;;;19.20;99.90;;;;;;15300494;19;20179;-82
2024/04/05 20:07:55;;;;;;;1.52;0.43;;;19.20;99.90;;;;;;15302037;19;20545;-82
2024/04/05 20:12:58;;;;;;;1.65;0.60;;;19.20;99.90;;;;;;15302119;19;20153;-82
2024/04/05 20:17:59;;;;;;;0.77;0.50;;;19.30;99.90;;;;;;15295357;19;20765;-83
2024/04/05 20:22:59;;;;;;;0.80;0.57;;;19.30;99.90;;;;;;15297201;19;20174;-82
2024/04/05 20:28:00;;;;;;;0.70;0.40;;;19.30;99.90;;;;;;15296771;19;20162;-83
2024/04/05 20:33:01;;;;;;;1.02;0.40;;;19.30;99.90;;;;;;15302582;19;20157;-83
2024/04/05 20:38:02;;;;;;;1.65;0.47;;;19.10;99.90;;;;;;15297228;19;20165;-82
2024/04/05 20:43:03;;;;;;;0.80;0.50;;;19.00;99.90;;;;;;15303699;19;20501;-83
2024/04/05 20:48:04;;;;;;;1.95;0.70;;;19.10;99.90;;;;;;15301832;19;20247;-83
2024/04/05 20:53:04;;;;;;;1.30;0.60;;;19.10;99.90;;;;;;15309888;19;20114;-83
2024/04/05 20:58:06;;;;;;;1.13;0.65;;;19.20;99.90;;;;;;15299864;19;20158;-83
2024/04/05 21:03:07;;;;;;;3.25;0.80;;;19.30;99.90;;;;;;15320190;19;20156;-83
2024/04/05 21:08:08;;;;;;;1.35;0.68;;;19.30;99.90;;;;;;15350104;19;20142;-83
2024/04/05 21:13:08;;;;;;;1.25;0.43;;;19.30;99.90;;;;;;15306756;19;20134;-84
2024/04/05 21:18:10;;;;;;;1.13;0.40;;;19.30;99.90;;;;;;15276725;19;20189;-81
2024/04/05 21:23:12;;;;;;;0.60;0.38;;;19.20;99.90;;;;;;15302476;19;20142;-81
2024/04/05 21:28:12;;;;;;;1.30;0.68;;;19.20;99.90;;;;;;15302915;19;20170;-83
2024/04/05 21:33:13;;;;;;;1.67;0.80;;;19.00;99.90;;;;;;15303927;19;20185;-83
2024/04/05 21:38:13;;;;;;;1.08;0.60;;;18.70;99.90;;;;;;15293853;19;20194;-82
2024/04/05 21:43:14;;;;;;;0.90;0.55;;;18.20;99.90;;;;;;15285727;19;20162;-78
2024/04/05 21:48:14;;;;;;;1.73;0.52;;;18.00;99.90;;;;;;15284313;19;20553;-78
2024/04/05 21:53:15;;;;;;;2.00;0.73;;;18.00;99.90;;;;;;15290559;19;20155;-78
2024/04/05 21:58:16;;;;;;;1.33;0.80;;;17.90;99.90;;;;;;15285502;19;20176;-77
2024/04/05 22:03:16;;;;;;;2.03;0.80;;;17.90;99.90;;;;;;15290849;19;20129;-78
2024/04/05 22:08:18;;;;;;;1.05;0.57;;;17.70;99.90;;;;;;15282560;19;20138;-79
2024/04/05 22:13:19;;;;;;;2.05;0.65;;;17.40;99.90;;;;;;15284368;19;20126;-78
2024/04/05 22:18:19;;;;;;;0.70;0.50;;;17.30;99.90;;;;;;15279846;19;20173;-76
2024/04/05 22:23:20;;;;;;;2.28;0.70;;;17.10;99.90;;;;;;15282470;19;20189;-78
2024/04/05 22:28:20;;;;;;;0.68;0.50;;;17.10;99.90;;;;;;15260394;19;20197;-79
2024/04/05 22:33:21;;;;;;;2.60;1.48;;;17.20;99.90;;;;;;15286560;19;20114;-77
2024/04/05 22:38:21;;;;;;;2.20;1.48;;;17.40;99.90;;;;;;15297192;19;20169;-79
2024/04/05 22:43:22;;;;;;;3.53;1.63;;;17.50;99.90;;;;;;15312000;19;20121;-75
2024/04/05 22:48:24;;;;;;;3.63;1.60;;;17.40;99.90;;;;;;15291885;19;20234;-77
2024/04/05 22:53:24;;;;;;;1.83;1.02;;;16.90;99.90;;;;;;15293831;19;20141;-77
2024/04/05 22:58:25;;;;;;;1.23;0.60;;;16.30;99.90;;;;;;15296368;19;20140;-78
2024/04/05 23:03:25;;;;;;;1.33;0.60;;;16.00;99.90;;;;;;15298250;19;20644;-76
2024/04/05 23:08:26;;;;;;;2.40;0.63;;;16.00;99.90;;;;;;15284078;19;20130;-76
2024/04/05 23:13:26;;;;;;;1.35;0.80;;;16.10;99.90;;;;;;15287039;19;20138;-78
2024/04/05 23:18:27;;;;;;;1.17;0.70;;;16.00;99.90;;;;;;15293119;19;20212;-78
2024/04/05 23:23:27;;;;;;;2.58;0.93;;;16.00;99.90;;;;;;15298018;19;20142;-77
2024/04/05 23:28:28;;;;;;;1.08;0.63;;;16.20;99.90;;;;;;15312169;19;20597;-79
2024/04/05 23:33:28;;;;;;;2.70;0.85;;;16.40;99.90;;;;;;15313749;19;20126;-78
2024/04/05 23:38:29;;;;;;;0.98;0.60;;;16.70;99.90;;;;;;15319341;19;20488;-79
2024/04/05 23:43:29;;;;;;;1.17;0.60;;;16.80;99.90;;;;;;15347099;19;20876;-78
2024/04/05 23:48:30;;;;;;;2.80;0.60;;;16.90;99.90;;;;;;15306909;19;20142;-77
2024/04/05 23:53:30;;;;;;;1.10;0.60;;;16.90;99.90;;;;;;15299002;19;20123;-76
2024/04/05 23:58:31;;;;;;;2.85;0.90;;;17.00;99.90;;;;;;15295856;19;20142;-76
